OpenWheelWorld.net Home
scott dixon
linker balk
Firestone Grand Prix of Monterey  
Track: Laguna Seca  
Type: Roadcourse  
Length: 3.602 km.  
Trackrecord: 1:07.722  
Mario Dominguez Mario Dominguez "Laguna Seca is a beautiful track with lots of changes in elevation. It is very fast with no room for error. The corkscrew, turn 7, is great for the drivers as well as the fans."  
Free practice 3  
P Driver Team Time GL GP AVG  
1. F. Rosenqvist (R) Ganassi Racing 1:10.406 0.000  
2. J. Newgarden Team Penske 1:10.589 0.182 0.000  
3. W. Power Team Penske 1:10.593 0.187 0.004 0.000  
4. S. Pagenaud Team Penske 1:10.612 0.206 0.019 0.000  
5. T. Sato Rahal Letterman Lanigan 1:10.711 0.304 0.099 0.000  
6. M. Chilton Carlin 1:10.713 0.306 0.002 0.000  
7. C. Herta (R) HS Racing 1:10.782 0.376 0.069 0.000  
8. S. Dixon Ganassi Racing 1:10.820 0.414 0.038 0.000  
9. G. Rahal Rahal Letterman Lanigan 1:10.863 0.457 0.043 0.000  
10. A. Rossi Andretti Autosport 1:10.874 0.467 0.011 0.000  
11. Mo. Andretti Andretti Autosport 1:10.930 0.524 0.056 0.000  
12. C. Daly Andretti Autosport 1:10.941 0.534 0.010 0.000  
13. C. Kimball Carlin 1:11.007 0.600 0.066 0.000  
14. S. Bourdais Dale Coyne 1:11.009 0.603 0.002 0.000  
15. S. Ferrucci (R) Dale Coyne 1:11.082 0.675 0.072 0.000  
16. Z. Veach Andretti Autosport 1:11.109 0.703 0.028 0.000  
17. M. Ericsson (R) Arrow Schmidt Peterson 1:11.161 0.754 0.052 0.000  
18. R. Hunter-Reay Andretti Autosport 1:11.243 0.836 0.082 0.000  
19. J. Harvey Meyer-Shank Racing 1:11.421 1.014 0.178 0.000  
20. M. Leist A.J. Foyt Enterprises 1:11.439 1.032 0.018 0.000  
21. J. Hinchcliffe Arrow Schmidt Peterson 1:11.486 1.080 0.047 0.000  
22. S. Pigot Ed Carpenter Racing 1:11.543 1.136 0.056 0.000  
23. E. Jones Ed Carpenter Racing 1:11.768 1.362 0.226 0.000  
24. T. Kanaan A.J. Foyt Enterprises 1:11.786 1.379 0.017 0.000  
 

P Position | GL Gap Leader | GP Gap Previous | AVG Average Speed